Kenton Hills, Kentucky
Current Conditions -  °F | °C
As of 8:14 PM on Tuesday 21 Oct 2014 (Local Time) from KI69 Reporting Station
Overcast Overcast  
Wind Chill: 50°   Ceiling: 3800
Heat Index: 50°   Visibility: 10mi
Dew Point: 46°   Wind: 3mph
Humidity: 87%   Direction: 330°NNW
Pressure: 30.13"   Gusts: NA
Location:  39.0659°N, 84.5309°W
Report Text: KI69 220014Z AUTO 33003KT 10SM OVC038 10/08 A3013 RMK AO1
Loading
Personal Weather Stations






























Interactive Weather Map
Tropical Storm Tracking
New forecast layout! Learn more

10-Day Weather Forecast

Advertisements
Track Severe Weather on mobile